SWA8725 KDCA-KEWR
Flight info
| Callsign | SWA8725 |
|---|---|
| Flight time | 0h 34m |
| Altitude | 21000 |
| Route | SOOKI6 SWANN PHLBO4 |
| Aircraft | B738/M-SADE2E3GIJ4RWZ/LB1D1 |
Departure
| Time | 2026-05-06 03:29 |
|---|---|
| Airport | Ronald Reagan Washington National Airport (KDCA) |
Arrival
| Time | 2026-05-06 04:04 |
|---|---|
| Airport | Newark Liberty International Airport (KEWR) |
| Time | Latitude | Longitude | Altitude | Speed | Heading |
|---|---|---|---|---|---|
| 2026-05-06 03:07 | 38.84633 | -77.04283 | 24 ft | 0 kts | 22° |
| 2026-05-06 03:19 | 38.84626 | -77.04286 | 24 ft | 2 kts | 22° |
| 2026-05-06 03:19 | 38.84612 | -77.04294 | 24 ft | 2 kts | 22° |
| 2026-05-06 03:19 | 38.84598 | -77.04301 | 23 ft | 2 kts | 22° |
| 2026-05-06 03:20 | 38.84576 | -77.04324 | 23 ft | 2 kts | 79° |
| 2026-05-06 03:20 | 38.84578 | -77.04343 | 23 ft | 1 kts | 116° |
| 2026-05-06 03:20 | 38.84581 | -77.04349 | 23 ft | 1 kts | 128° |
| 2026-05-06 03:21 | 38.84582 | -77.04353 | 23 ft | 0 kts | 124° |
| 2026-05-06 03:23 | 38.84576 | -77.04340 | 23 ft | 5 kts | 124° |
| 2026-05-06 03:23 | 38.84566 | -77.04256 | 23 ft | 14 kts | 80° |
| 2026-05-06 03:23 | 38.84600 | -77.04085 | 23 ft | 26 kts | 61° |
| 2026-05-06 03:24 | 38.84795 | -77.03950 | 24 ft | 36 kts | 8° |
| 2026-05-06 03:24 | 38.85052 | -77.03968 | 24 ft | 39 kts | 355° |
| 2026-05-06 03:24 | 38.85329 | -77.03996 | 25 ft | 41 kts | 356° |
| 2026-05-06 03:24 | 38.85612 | -77.04038 | 23 ft | 40 kts | 353° |
| 2026-05-06 03:25 | 38.85867 | -77.04063 | 21 ft | 22 kts | 357° |
| 2026-05-06 03:25 | 38.85950 | -77.03982 | 19 ft | 11 kts | 44° |
| 2026-05-06 03:25 | 38.85998 | -77.03954 | 18 ft | 0 kts | 16° |
| 2026-05-06 03:25 | 38.86021 | -77.03946 | 18 ft | 11 kts | 16° |
| 2026-05-06 03:26 | 38.86103 | -77.03895 | 17 ft | 9 kts | 79° |
| 2026-05-06 03:26 | 38.86078 | -77.03871 | 17 ft | 0 kts | 175° |
| 2026-05-06 03:28 | 38.86068 | -77.03870 | 17 ft | 8 kts | 175° |
| 2026-05-06 03:28 | 38.85763 | -77.03838 | 20 ft | 80 kts | 175° |
| 2026-05-06 03:29 | 38.84989 | -77.03760 | 22 ft | 140 kts | 176° |
| 2026-05-06 03:29 | 38.83964 | -77.03667 | 488 ft | 151 kts | 180° |
| 2026-05-06 03:29 | 38.82942 | -77.03546 | 1240 ft | 148 kts | 174° |
| 2026-05-06 03:29 | 38.81853 | -77.03278 | 1544 ft | 171 kts | 174° |
| 2026-05-06 03:30 | 38.80619 | -77.02997 | 2074 ft | 183 kts | 175° |
| 2026-05-06 03:30 | 38.79385 | -77.02737 | 2762 ft | 187 kts | 178° |
| 2026-05-06 03:30 | 38.78088 | -77.02474 | 3399 ft | 195 kts | 178° |
| 2026-05-06 03:30 | 38.76720 | -77.02002 | 3901 ft | 218 kts | 162° |
| 2026-05-06 03:31 | 38.75529 | -77.00605 | 4385 ft | 254 kts | 127° |
| 2026-05-06 03:31 | 38.75024 | -76.98328 | 4884 ft | 282 kts | 100° |
| 2026-05-06 03:31 | 38.75015 | -76.95737 | 5427 ft | 300 kts | 90° |
| 2026-05-06 03:31 | 38.75535 | -76.93105 | 6315 ft | 313 kts | 65° |
| 2026-05-06 03:32 | 38.76746 | -76.90865 | 7482 ft | 309 kts | 46° |
| 2026-05-06 03:32 | 38.78349 | -76.89082 | 8543 ft | 307 kts | 32° |
| 2026-05-06 03:32 | 38.80143 | -76.87639 | 9506 ft | 309 kts | 27° |
| 2026-05-06 03:32 | 38.82011 | -76.86285 | 10444 ft | 312 kts | 27° |
| 2026-05-06 03:33 | 38.83940 | -76.84891 | 11072 ft | 327 kts | 27° |
| 2026-05-06 03:33 | 38.85953 | -76.83371 | 11666 ft | 343 kts | 30° |
| 2026-05-06 03:33 | 38.87917 | -76.81522 | 12193 ft | 362 kts | 38° |
| 2026-05-06 03:33 | 38.89856 | -76.79357 | 12682 ft | 379 kts | 41° |
| 2026-05-06 03:34 | 38.91826 | -76.77013 | 13375 ft | 389 kts | 42° |
| 2026-05-06 03:34 | 38.93787 | -76.74654 | 14110 ft | 397 kts | 41° |
| 2026-05-06 03:34 | 38.95835 | -76.72210 | 14915 ft | 403 kts | 41° |
| 2026-05-06 03:34 | 38.97900 | -76.69768 | 15711 ft | 408 kts | 41° |
| 2026-05-06 03:35 | 39.00002 | -76.67303 | 16490 ft | 413 kts | 41° |
| 2026-05-06 03:35 | 39.02121 | -76.64809 | 17233 ft | 418 kts | 41° |
| 2026-05-06 03:35 | 39.04221 | -76.62216 | 17945 ft | 424 kts | 43° |
| 2026-05-06 03:35 | 39.06327 | -76.59525 | 18668 ft | 428 kts | 43° |
| 2026-05-06 03:36 | 39.08383 | -76.56817 | 19442 ft | 431 kts | 46° |
| 2026-05-06 03:36 | 39.10214 | -76.53764 | 20239 ft | 434 kts | 56° |
| 2026-05-06 03:36 | 39.11634 | -76.50320 | 20790 ft | 440 kts | 66° |
| 2026-05-06 03:36 | 39.12547 | -76.46565 | 20944 ft | 447 kts | 76° |
| 2026-05-06 03:37 | 39.13149 | -76.42610 | 20936 ft | 444 kts | 81° |
| 2026-05-06 03:37 | 39.13608 | -76.38730 | 20941 ft | 441 kts | 82° |
| 2026-05-06 03:37 | 39.14023 | -76.34795 | 20945 ft | 444 kts | 83° |
| 2026-05-06 03:37 | 39.14424 | -76.30859 | 20943 ft | 444 kts | 83° |
| 2026-05-06 03:38 | 39.14938 | -76.26952 | 20947 ft | 443 kts | 76° |
| 2026-05-06 03:38 | 39.16009 | -76.23231 | 20954 ft | 440 kts | 60° |
| 2026-05-06 03:38 | 39.17723 | -76.20031 | 20953 ft | 439 kts | 46° |
| 2026-05-06 03:38 | 39.19859 | -76.17216 | 20955 ft | 435 kts | 40° |
| 2026-05-06 03:39 | 39.22080 | -76.14568 | 20956 ft | 435 kts | 39° |
| 2026-05-06 03:39 | 39.24335 | -76.11964 | 20948 ft | 436 kts | 38° |
| 2026-05-06 03:39 | 39.26591 | -76.09377 | 20952 ft | 434 kts | 39° |
| 2026-05-06 03:39 | 39.28869 | -76.06760 | 20951 ft | 436 kts | 38° |
| 2026-05-06 03:40 | 39.31092 | -76.04190 | 20947 ft | 434 kts | 39° |
| 2026-05-06 03:40 | 39.33338 | -76.01579 | 20948 ft | 437 kts | 39° |
| 2026-05-06 03:40 | 39.35589 | -75.98951 | 20948 ft | 434 kts | 39° |
| 2026-05-06 03:40 | 39.37838 | -75.96315 | 20961 ft | 437 kts | 39° |
| 2026-05-06 03:41 | 39.40065 | -75.93697 | 20957 ft | 436 kts | 39° |
| 2026-05-06 03:41 | 39.42319 | -75.91039 | 20936 ft | 434 kts | 39° |
| 2026-05-06 03:41 | 39.44546 | -75.88402 | 20945 ft | 436 kts | 39° |
| 2026-05-06 03:41 | 39.46785 | -75.85752 | 20941 ft | 437 kts | 39° |
| 2026-05-06 03:42 | 39.48999 | -75.83131 | 20931 ft | 437 kts | 39° |
| 2026-05-06 03:42 | 39.51247 | -75.80468 | 20931 ft | 439 kts | 39° |
| 2026-05-06 03:42 | 39.53505 | -75.77795 | 20931 ft | 438 kts | 40° |
| 2026-05-06 03:42 | 39.55733 | -75.75152 | 20932 ft | 439 kts | 39° |
| 2026-05-06 03:43 | 39.57993 | -75.72469 | 20934 ft | 438 kts | 39° |
| 2026-05-06 03:43 | 39.60220 | -75.69819 | 20935 ft | 439 kts | 40° |
| 2026-05-06 03:43 | 39.62473 | -75.67137 | 20935 ft | 440 kts | 39° |
| 2026-05-06 03:43 | 39.64708 | -75.64475 | 20938 ft | 437 kts | 40° |
| 2026-05-06 03:44 | 39.66912 | -75.61842 | 20933 ft | 421 kts | 40° |
| 2026-05-06 03:44 | 39.69013 | -75.59323 | 20934 ft | 403 kts | 39° |
| 2026-05-06 03:44 | 39.71041 | -75.56880 | 20934 ft | 394 kts | 40° |
| 2026-05-06 03:44 | 39.73064 | -75.54445 | 20904 ft | 405 kts | 39° |
| 2026-05-06 03:45 | 39.75167 | -75.51919 | 20628 ft | 416 kts | 40° |
| 2026-05-06 03:45 | 39.77290 | -75.49363 | 20186 ft | 414 kts | 40° |
| 2026-05-06 03:45 | 39.79388 | -75.46830 | 19669 ft | 410 kts | 40° |
| 2026-05-06 03:45 | 39.81460 | -75.44323 | 19156 ft | 407 kts | 40° |
| 2026-05-06 03:46 | 39.83529 | -75.41819 | 18629 ft | 404 kts | 41° |
| 2026-05-06 03:46 | 39.85572 | -75.39342 | 18112 ft | 401 kts | 41° |
| 2026-05-06 03:46 | 39.87597 | -75.36887 | 17583 ft | 399 kts | 41° |
| 2026-05-06 03:46 | 39.89623 | -75.34429 | 17068 ft | 396 kts | 42° |
| 2026-05-06 03:47 | 39.91626 | -75.31997 | 16559 ft | 393 kts | 42° |
| 2026-05-06 03:47 | 39.93597 | -75.29604 | 16045 ft | 390 kts | 42° |
| 2026-05-06 03:47 | 39.95582 | -75.27190 | 15526 ft | 387 kts | 42° |
| 2026-05-06 03:47 | 39.97540 | -75.24809 | 15015 ft | 385 kts | 42° |
| 2026-05-06 03:48 | 39.99475 | -75.22456 | 14504 ft | 382 kts | 42° |
| 2026-05-06 03:48 | 40.01417 | -75.20091 | 13989 ft | 380 kts | 43° |
| 2026-05-06 03:48 | 40.03341 | -75.17748 | 13484 ft | 377 kts | 42° |
| 2026-05-06 03:48 | 40.05233 | -75.15440 | 12989 ft | 374 kts | 42° |
| 2026-05-06 03:49 | 40.07115 | -75.13142 | 12484 ft | 372 kts | 42° |
| 2026-05-06 03:49 | 40.09010 | -75.10825 | 11975 ft | 369 kts | 42° |
| 2026-05-06 03:49 | 40.10868 | -75.08553 | 11477 ft | 366 kts | 42° |
| 2026-05-06 03:49 | 40.12704 | -75.06306 | 11060 ft | 360 kts | 42° |
| 2026-05-06 03:50 | 40.14518 | -75.04081 | 10819 ft | 353 kts | 42° |
| 2026-05-06 03:50 | 40.16293 | -75.01903 | 10552 ft | 354 kts | 42° |
| 2026-05-06 03:50 | 40.18075 | -74.99717 | 10313 ft | 345 kts | 42° |
| 2026-05-06 03:50 | 40.19786 | -74.97616 | 10176 ft | 332 kts | 42° |
| 2026-05-06 03:51 | 40.21434 | -74.95588 | 9949 ft | 324 kts | 42° |
| 2026-05-06 03:51 | 40.23083 | -74.93560 | 9499 ft | 324 kts | 41° |
| 2026-05-06 03:51 | 40.24714 | -74.91556 | 9075 ft | 324 kts | 42° |
| 2026-05-06 03:51 | 40.26334 | -74.89505 | 8658 ft | 323 kts | 44° |
| 2026-05-06 03:52 | 40.27877 | -74.87383 | 8245 ft | 322 kts | 46° |
| 2026-05-06 03:52 | 40.29371 | -74.85240 | 8013 ft | 315 kts | 46° |
| 2026-05-06 03:52 | 40.30842 | -74.83119 | 8014 ft | 310 kts | 46° |
| 2026-05-06 03:52 | 40.32294 | -74.81047 | 8017 ft | 313 kts | 46° |
| 2026-05-06 03:53 | 40.33777 | -74.78947 | 8016 ft | 313 kts | 46° |
| 2026-05-06 03:53 | 40.35260 | -74.76856 | 8024 ft | 313 kts | 45° |
| 2026-05-06 03:53 | 40.36747 | -74.74762 | 8017 ft | 314 kts | 46° |
| 2026-05-06 03:53 | 40.38221 | -74.72687 | 8013 ft | 314 kts | 45° |
| 2026-05-06 03:54 | 40.39717 | -74.70580 | 8013 ft | 313 kts | 46° |
| 2026-05-06 03:54 | 40.41201 | -74.68476 | 8009 ft | 313 kts | 48° |
| 2026-05-06 03:54 | 40.42492 | -74.66179 | 8019 ft | 317 kts | 61° |
| 2026-05-06 03:54 | 40.43363 | -74.63531 | 7585 ft | 322 kts | 73° |
| 2026-05-06 03:55 | 40.43995 | -74.60709 | 7080 ft | 323 kts | 76° |
| 2026-05-06 03:55 | 40.44567 | -74.57886 | 6679 ft | 315 kts | 77° |
| 2026-05-06 03:55 | 40.45136 | -74.55169 | 6290 ft | 310 kts | 76° |
| 2026-05-06 03:55 | 40.45733 | -74.52483 | 5892 ft | 305 kts | 75° |
| 2026-05-06 03:56 | 40.46345 | -74.49849 | 5501 ft | 300 kts | 75° |
| 2026-05-06 03:56 | 40.46963 | -74.47229 | 5106 ft | 296 kts | 75° |
| 2026-05-06 03:56 | 40.47568 | -74.44676 | 4728 ft | 291 kts | 75° |
| 2026-05-06 03:56 | 40.48157 | -74.42185 | 4371 ft | 288 kts | 75° |
| 2026-05-06 03:57 | 40.48770 | -74.39576 | 4045 ft | 304 kts | 76° |
| 2026-05-06 03:57 | 40.49382 | -74.36972 | 3902 ft | 297 kts | 75° |
| 2026-05-06 03:57 | 40.49988 | -74.34413 | 3822 ft | 286 kts | 76° |
| 2026-05-06 03:57 | 40.50568 | -74.31961 | 3731 ft | 273 kts | 77° |
| 2026-05-06 03:58 | 40.51137 | -74.29687 | 3647 ft | 256 kts | 72° |
| 2026-05-06 03:58 | 40.51950 | -74.27692 | 3549 ft | 242 kts | 50° |
| 2026-05-06 03:58 | 40.53249 | -74.26398 | 3244 ft | 234 kts | 21° |
| 2026-05-06 03:58 | 40.54729 | -74.25565 | 2946 ft | 229 kts | 17° |
| 2026-05-06 03:59 | 40.56170 | -74.24763 | 2683 ft | 223 kts | 19° |
| 2026-05-06 03:59 | 40.57580 | -74.23904 | 2423 ft | 218 kts | 22° |
| 2026-05-06 03:59 | 40.58926 | -74.23043 | 2206 ft | 211 kts | 23° |
| 2026-05-06 03:59 | 40.60184 | -74.22150 | 2067 ft | 202 kts | 34° |
| 2026-05-06 04:00 | 40.61116 | -74.20866 | 1940 ft | 183 kts | 65° |
| 2026-05-06 04:00 | 40.61631 | -74.19389 | 1960 ft | 177 kts | 75° |
| 2026-05-06 04:00 | 40.62126 | -74.17907 | 1939 ft | 179 kts | 71° |
| 2026-05-06 04:00 | 40.62660 | -74.16415 | 2015 ft | 180 kts | 70° |
| 2026-05-06 04:01 | 40.63235 | -74.14935 | 2038 ft | 183 kts | 68° |
| 2026-05-06 04:01 | 40.63816 | -74.13454 | 1999 ft | 180 kts | 66° |
| 2026-05-06 04:01 | 40.64449 | -74.12021 | 2025 ft | 185 kts | 62° |
| 2026-05-06 04:01 | 40.65281 | -74.10734 | 1841 ft | 185 kts | 36° |
| 2026-05-06 04:02 | 40.66408 | -74.09997 | 1578 ft | 180 kts | 17° |
| 2026-05-06 04:02 | 40.67622 | -74.09619 | 1314 ft | 178 kts | 356° |
| 2026-05-06 04:02 | 40.68747 | -74.10002 | 1071 ft | 163 kts | 321° |
| 2026-05-06 04:02 | 40.69595 | -74.10900 | 892 ft | 151 kts | 301° |
| 2026-05-06 04:03 | 40.69935 | -74.12096 | 735 ft | 136 kts | 265° |
| 2026-05-06 04:03 | 40.69978 | -74.13351 | 540 ft | 139 kts | 266° |
| 2026-05-06 04:03 | 40.70064 | -74.14629 | 300 ft | 143 kts | 270° |
| 2026-05-06 04:03 | 40.70146 | -74.15965 | 35 ft | 148 kts | 270° |
| 2026-05-06 04:04 | 40.70214 | -74.17053 | 17 ft | 72 kts | 275° |
| 2026-05-06 04:04 | 40.70245 | -74.17519 | 17 ft | 35 kts | 272° |
| 2026-05-06 04:04 | 40.70211 | -74.17748 | 18 ft | 23 kts | 245° |
| 2026-05-06 04:04 | 40.70165 | -74.17846 | 17 ft | 5 kts | 131° |
| 2026-05-06 04:05 | 40.70153 | -74.17798 | 17 ft | 8 kts | 95° |
| 2026-05-06 04:05 | 40.70143 | -74.17655 | 17 ft | 22 kts | 95° |
| 2026-05-06 04:05 | 40.70129 | -74.17424 | 17 ft | 26 kts | 95° |
| 2026-05-06 04:05 | 40.70113 | -74.17184 | 17 ft | 26 kts | 95° |
| 2026-05-06 04:06 | 40.70098 | -74.16948 | 17 ft | 26 kts | 95° |
| 2026-05-06 04:06 | 40.70053 | -74.16757 | 17 ft | 20 kts | 161° |
| 2026-05-06 04:06 | 40.69915 | -74.16765 | 17 ft | 19 kts | 186° |
| 2026-05-06 04:06 | 40.69765 | -74.16814 | 17 ft | 25 kts | 205° |
| 2026-05-06 04:07 | 40.69592 | -74.16925 | 17 ft | 31 kts | 205° |
| 2026-05-06 04:07 | 40.69380 | -74.17060 | 17 ft | 36 kts | 206° |
| 2026-05-06 04:07 | 40.69152 | -74.17203 | 17 ft | 36 kts | 205° |
| 2026-05-06 04:07 | 40.68929 | -74.17345 | 17 ft | 35 kts | 205° |
| 2026-05-06 04:08 | 40.68713 | -74.17482 | 17 ft | 34 kts | 206° |
| 2026-05-06 04:08 | 40.68502 | -74.17615 | 17 ft | 33 kts | 206° |
| 2026-05-06 04:08 | 40.68299 | -74.17744 | 17 ft | 27 kts | 206° |
| 2026-05-06 04:08 | 40.68191 | -74.17855 | 17 ft | 15 kts | 272° |
| 2026-05-06 04:09 | 40.68232 | -74.17991 | 17 ft | 16 kts | 285° |
| 2026-05-06 04:09 | 40.68242 | -74.18159 | 17 ft | 16 kts | 263° |
| 2026-05-06 04:09 | 40.68240 | -74.18249 | 17 ft | 5 kts | 274° |
| 2026-05-06 04:09 | 40.68244 | -74.18265 | 17 ft | 5 kts | 311° |
| 2026-05-06 04:10 | 40.68295 | -74.18269 | 17 ft | 5 kts | 351° |
| 2026-05-06 04:10 | 40.68299 | -74.18271 | 17 ft | 0 kts | 346° |